sensor_id;sensor_type;location;lat;lon;timestamp;P1;durP1;ratioP1;P2;durP2;ratioP2
4839;SDS011;2434;48.486;7.964;2022-12-05T00:01:37;28.30;;;17.60;;
4839;SDS011;2434;48.486;7.964;2022-12-05T00:04:08;31.20;;;16.70;;
4839;SDS011;2434;48.486;7.964;2022-12-05T00:06:39;27.80;;;16.20;;
4839;SDS011;2434;48.486;7.964;2022-12-05T00:09:08;25.33;;;16.47;;
4839;SDS011;2434;48.486;7.964;2022-12-05T00:11:38;30.90;;;17.10;;
4839;SDS011;2434;48.486;7.964;2022-12-05T00:14:08;26.53;;;16.50;;
4839;SDS011;2434;48.486;7.964;2022-12-05T00:16:39;30.40;;;17.87;;
4839;SDS011;2434;48.486;7.964;2022-12-05T00:19:10;26.73;;;17.60;;
4839;SDS011;2434;48.486;7.964;2022-12-05T00:21:39;26.80;;;17.03;;
4839;SDS011;2434;48.486;7.964;2022-12-05T00:24:10;26.07;;;16.50;;
4839;SDS011;2434;48.486;7.964;2022-12-05T00:26:40;27.03;;;16.10;;
4839;SDS011;2434;48.486;7.964;2022-12-05T00:29:09;25.43;;;15.90;;
4839;SDS011;2434;48.486;7.964;2022-12-05T00:31:39;23.57;;;14.37;;
4839;SDS011;2434;48.486;7.964;2022-12-05T00:34:08;20.33;;;13.30;;
4839;SDS011;2434;48.486;7.964;2022-12-05T00:36:36;18.60;;;12.30;;
4839;SDS011;2434;48.486;7.964;2022-12-05T00:39:06;20.47;;;12.43;;
4839;SDS011;2434;48.486;7.964;2022-12-05T00:41:35;19.77;;;13.57;;
4839;SDS011;2434;48.486;7.964;2022-12-05T00:44:04;22.63;;;14.67;;
4839;SDS011;2434;48.486;7.964;2022-12-05T00:46:33;19.60;;;12.90;;
4839;SDS011;2434;48.486;7.964;2022-12-05T00:49:04;18.57;;;11.97;;
4839;SDS011;2434;48.486;7.964;2022-12-05T00:51:34;20.10;;;13.13;;
4839;SDS011;2434;48.486;7.964;2022-12-05T00:54:04;18.20;;;12.40;;
4839;SDS011;2434;48.486;7.964;2022-12-05T00:56:34;19.13;;;13.43;;
4839;SDS011;2434;48.486;7.964;2022-12-05T00:59:03;22.07;;;13.80;;
4839;SDS011;2434;48.486;7.964;2022-12-05T01:01:33;18.97;;;12.23;;
4839;SDS011;2434;48.486;7.964;2022-12-05T01:04:05;19.70;;;13.27;;
4839;SDS011;2434;48.486;7.964;2022-12-05T01:06:35;20.10;;;13.57;;
4839;SDS011;2434;48.486;7.964;2022-12-05T01:09:04;17.47;;;12.50;;
4839;SDS011;2434;48.486;7.964;2022-12-05T01:11:33;17.13;;;11.80;;
4839;SDS011;2434;48.486;7.964;2022-12-05T01:14:07;19.13;;;12.70;;
4839;SDS011;2434;48.486;7.964;2022-12-05T01:16:36;19.23;;;12.03;;
4839;SDS011;2434;48.486;7.964;2022-12-05T01:19:07;19.60;;;12.53;;
4839;SDS011;2434;48.486;7.964;2022-12-05T01:21:38;18.80;;;13.43;;
4839;SDS011;2434;48.486;7.964;2022-12-05T01:24:07;22.03;;;12.83;;
4839;SDS011;2434;48.486;7.964;2022-12-05T01:26:35;19.87;;;13.07;;
4839;SDS011;2434;48.486;7.964;2022-12-05T01:29:04;17.97;;;12.00;;
4839;SDS011;2434;48.486;7.964;2022-12-05T01:31:33;22.20;;;13.20;;
4839;SDS011;2434;48.486;7.964;2022-12-05T01:34:03;23.17;;;13.37;;
4839;SDS011;2434;48.486;7.964;2022-12-05T01:36:34;22.07;;;13.50;;
4839;SDS011;2434;48.486;7.964;2022-12-05T01:39:04;21.73;;;13.40;;
4839;SDS011;2434;48.486;7.964;2022-12-05T01:41:33;23.73;;;13.97;;
4839;SDS011;2434;48.486;7.964;2022-12-05T01:44:04;19.30;;;11.80;;
4839;SDS011;2434;48.486;7.964;2022-12-05T01:46:34;27.23;;;14.10;;
4839;SDS011;2434;48.486;7.964;2022-12-05T01:49:05;22.80;;;13.00;;
4839;SDS011;2434;48.486;7.964;2022-12-05T01:51:40;23.23;;;14.23;;
4839;SDS011;2434;48.486;7.964;2022-12-05T01:54:12;24.27;;;13.97;;
4839;SDS011;2434;48.486;7.964;2022-12-05T01:56:45;19.80;;;12.93;;
4839;SDS011;2434;48.486;7.964;2022-12-05T01:59:16;24.90;;;14.20;;
4839;SDS011;2434;48.486;7.964;2022-12-05T02:01:47;20.70;;;13.13;;
4839;SDS011;2434;48.486;7.964;2022-12-05T02:04:16;22.20;;;13.63;;
4839;SDS011;2434;48.486;7.964;2022-12-05T02:06:46;23.10;;;14.57;;
4839;SDS011;2434;48.486;7.964;2022-12-05T02:09:14;26.10;;;14.10;;
4839;SDS011;2434;48.486;7.964;2022-12-05T02:11:43;20.40;;;13.27;;
4839;SDS011;2434;48.486;7.964;2022-12-05T02:14:20;25.47;;;14.27;;
4839;SDS011;2434;48.486;7.964;2022-12-05T02:16:57;22.63;;;13.17;;
4839;SDS011;2434;48.486;7.964;2022-12-05T02:28:32;21.23;;;12.93;;
4839;SDS011;2434;48.486;7.964;2022-12-05T02:31:21;19.93;;;12.43;;
4839;SDS011;2434;48.486;7.964;2022-12-05T02:33:56;18.53;;;11.90;;
4839;SDS011;2434;48.486;7.964;2022-12-05T02:36:33;20.30;;;14.00;;
4839;SDS011;2434;48.486;7.964;2022-12-05T02:39:09;23.53;;;14.50;;
4839;SDS011;2434;48.486;7.964;2022-12-05T02:41:45;21.50;;;13.17;;
4839;SDS011;2434;48.486;7.964;2022-12-05T02:44:17;22.50;;;12.57;;
4839;SDS011;2434;48.486;7.964;2022-12-05T02:46:52;24.13;;;13.67;;
4839;SDS011;2434;48.486;7.964;2022-12-05T02:49:22;19.60;;;12.67;;
4839;SDS011;2434;48.486;7.964;2022-12-05T02:51:55;19.27;;;12.30;;
4839;SDS011;2434;48.486;7.964;2022-12-05T02:54:26;19.97;;;12.43;;
4839;SDS011;2434;48.486;7.964;2022-12-05T02:56:56;18.70;;;11.97;;
4839;SDS011;2434;48.486;7.964;2022-12-05T02:59:25;19.90;;;11.83;;
4839;SDS011;2434;48.486;7.964;2022-12-05T03:01:55;20.43;;;12.33;;
4839;SDS011;2434;48.486;7.964;2022-12-05T03:04:24;23.23;;;13.80;;
4839;SDS011;2434;48.486;7.964;2022-12-05T03:06:55;20.33;;;11.63;;
4839;SDS011;2434;48.486;7.964;2022-12-05T03:09:27;20.10;;;12.93;;
4839;SDS011;2434;48.486;7.964;2022-12-05T03:12:02;20.87;;;11.97;;
4839;SDS011;2434;48.486;7.964;2022-12-05T03:14:38;18.93;;;12.67;;
4839;SDS011;2434;48.486;7.964;2022-12-05T03:17:12;21.60;;;12.00;;
4839;SDS011;2434;48.486;7.964;2022-12-05T03:19:49;22.03;;;12.10;;
4839;SDS011;2434;48.486;7.964;2022-12-05T03:22:25;16.47;;;11.37;;
4839;SDS011;2434;48.486;7.964;2022-12-05T03:24:57;19.10;;;11.83;;
4839;SDS011;2434;48.486;7.964;2022-12-05T03:27:26;17.47;;;11.73;;
4839;SDS011;2434;48.486;7.964;2022-12-05T03:30:01;18.33;;;11.57;;
4839;SDS011;2434;48.486;7.964;2022-12-05T03:32:35;18.30;;;11.60;;
4839;SDS011;2434;48.486;7.964;2022-12-05T03:35:09;16.43;;;11.20;;
4839;SDS011;2434;48.486;7.964;2022-12-05T03:37:42;17.40;;;11.17;;
4839;SDS011;2434;48.486;7.964;2022-12-05T03:40:19;15.60;;;10.30;;
4839;SDS011;2434;48.486;7.964;2022-12-05T03:42:54;18.43;;;11.07;;
4839;SDS011;2434;48.486;7.964;2022-12-05T03:45:30;18.30;;;11.87;;
4839;SDS011;2434;48.486;7.964;2022-12-05T03:48:05;19.60;;;12.33;;
4839;SDS011;2434;48.486;7.964;2022-12-05T03:50:38;20.27;;;12.47;;
4839;SDS011;2434;48.486;7.964;2022-12-05T03:53:11;17.70;;;11.40;;
4839;SDS011;2434;48.486;7.964;2022-12-05T03:55:48;18.80;;;11.50;;
4839;SDS011;2434;48.486;7.964;2022-12-05T03:58:21;15.50;;;10.07;;
4839;SDS011;2434;48.486;7.964;2022-12-05T04:00:53;17.03;;;12.33;;
4839;SDS011;2434;48.486;7.964;2022-12-05T04:03:27;19.77;;;12.07;;
4839;SDS011;2434;48.486;7.964;2022-12-05T04:06:08;18.90;;;12.07;;
4839;SDS011;2434;48.486;7.964;2022-12-05T04:08:41;18.07;;;11.33;;
4839;SDS011;2434;48.486;7.964;2022-12-05T04:11:15;17.53;;;11.80;;
4839;SDS011;2434;48.486;7.964;2022-12-05T04:13:46;17.40;;;12.57;;
4839;SDS011;2434;48.486;7.964;2022-12-05T04:16:18;17.80;;;11.90;;
4839;SDS011;2434;48.486;7.964;2022-12-05T04:19:11;15.87;;;11.10;;
4839;SDS011;2434;48.486;7.964;2022-12-05T04:21:44;20.07;;;11.90;;
4839;SDS011;2434;48.486;7.964;2022-12-05T04:24:16;17.40;;;11.47;;
4839;SDS011;2434;48.486;7.964;2022-12-05T04:27:08;12.47;;;8.80;;
4839;SDS011;2434;48.486;7.964;2022-12-05T04:29:45;16.50;;;11.10;;
4839;SDS011;2434;48.486;7.964;2022-12-05T04:32:21;17.43;;;11.00;;
4839;SDS011;2434;48.486;7.964;2022-12-05T04:34:56;15.17;;;11.20;;
4839;SDS011;2434;48.486;7.964;2022-12-05T04:37:30;16.90;;;10.53;;
4839;SDS011;2434;48.486;7.964;2022-12-05T04:40:02;16.73;;;11.10;;
4839;SDS011;2434;48.486;7.964;2022-12-05T04:42:36;14.10;;;9.00;;
4839;SDS011;2434;48.486;7.964;2022-12-05T04:45:05;18.27;;;10.90;;
4839;SDS011;2434;48.486;7.964;2022-12-05T04:47:38;18.37;;;11.17;;
4839;SDS011;2434;48.486;7.964;2022-12-05T04:50:12;14.83;;;10.93;;
4839;SDS011;2434;48.486;7.964;2022-12-05T04:52:42;15.23;;;11.03;;
4839;SDS011;2434;48.486;7.964;2022-12-05T04:55:16;14.57;;;9.73;;
4839;SDS011;2434;48.486;7.964;2022-12-05T04:57:53;14.90;;;9.97;;
4839;SDS011;2434;48.486;7.964;2022-12-05T05:00:26;16.80;;;10.50;;
4839;SDS011;2434;48.486;7.964;2022-12-05T05:02:59;14.77;;;10.53;;
4839;SDS011;2434;48.486;7.964;2022-12-05T05:05:33;14.43;;;9.87;;
4839;SDS011;2434;48.486;7.964;2022-12-05T05:08:02;14.83;;;10.53;;
4839;SDS011;2434;48.486;7.964;2022-12-05T05:10:32;15.23;;;10.17;;
4839;SDS011;2434;48.486;7.964;2022-12-05T05:13:04;15.67;;;10.63;;
4839;SDS011;2434;48.486;7.964;2022-12-05T05:15:32;15.33;;;9.60;;
4839;SDS011;2434;48.486;7.964;2022-12-05T05:18:00;13.80;;;9.90;;
4839;SDS011;2434;48.486;7.964;2022-12-05T05:20:28;19.07;;;11.27;;
4839;SDS011;2434;48.486;7.964;2022-12-05T05:22:58;17.47;;;9.87;;
4839;SDS011;2434;48.486;7.964;2022-12-05T05:25:26;14.43;;;10.73;;
4839;SDS011;2434;48.486;7.964;2022-12-05T05:27:54;20.07;;;11.53;;
4839;SDS011;2434;48.486;7.964;2022-12-05T05:30:23;17.73;;;10.57;;
4839;SDS011;2434;48.486;7.964;2022-12-05T05:32:51;18.10;;;11.10;;
4839;SDS011;2434;48.486;7.964;2022-12-05T05:35:21;19.47;;;12.30;;
4839;SDS011;2434;48.486;7.964;2022-12-05T05:37:49;14.73;;;9.77;;
4839;SDS011;2434;48.486;7.964;2022-12-05T05:40:19;15.33;;;10.50;;
4839;SDS011;2434;48.486;7.964;2022-12-05T05:42:47;16.07;;;11.03;;
4839;SDS011;2434;48.486;7.964;2022-12-05T05:45:17;16.87;;;12.53;;
4839;SDS011;2434;48.486;7.964;2022-12-05T05:47:46;17.57;;;12.00;;
4839;SDS011;2434;48.486;7.964;2022-12-05T05:50:15;16.60;;;11.20;;
4839;SDS011;2434;48.486;7.964;2022-12-05T05:52:47;17.40;;;11.40;;
4839;SDS011;2434;48.486;7.964;2022-12-05T05:55:16;21.57;;;13.00;;
4839;SDS011;2434;48.486;7.964;2022-12-05T05:57:45;17.40;;;11.97;;
4839;SDS011;2434;48.486;7.964;2022-12-05T06:00:14;15.40;;;10.87;;
4839;SDS011;2434;48.486;7.964;2022-12-05T06:02:42;15.57;;;10.40;;
4839;SDS011;2434;48.486;7.964;2022-12-05T06:05:11;19.63;;;10.83;;
4839;SDS011;2434;48.486;7.964;2022-12-05T06:07:39;17.50;;;12.17;;
4839;SDS011;2434;48.486;7.964;2022-12-05T06:10:07;18.00;;;11.67;;
4839;SDS011;2434;48.486;7.964;2022-12-05T06:12:36;21.30;;;11.87;;
4839;SDS011;2434;48.486;7.964;2022-12-05T06:15:07;18.00;;;11.70;;
4839;SDS011;2434;48.486;7.964;2022-12-05T06:17:35;16.30;;;11.30;;
4839;SDS011;2434;48.486;7.964;2022-12-05T06:20:04;23.73;;;14.03;;
4839;SDS011;2434;48.486;7.964;2022-12-05T06:22:34;22.87;;;13.20;;
4839;SDS011;2434;48.486;7.964;2022-12-05T06:25:02;18.60;;;12.00;;
4839;SDS011;2434;48.486;7.964;2022-12-05T06:27:30;22.57;;;13.70;;
4839;SDS011;2434;48.486;7.964;2022-12-05T06:29:59;20.30;;;12.90;;
4839;SDS011;2434;48.486;7.964;2022-12-05T06:32:30;18.00;;;12.00;;
4839;SDS011;2434;48.486;7.964;2022-12-05T06:34:58;19.97;;;12.77;;
4839;SDS011;2434;48.486;7.964;2022-12-05T06:37:35;20.87;;;13.77;;
4839;SDS011;2434;48.486;7.964;2022-12-05T06:40:04;21.40;;;13.10;;
4839;SDS011;2434;48.486;7.964;2022-12-05T06:42:33;20.80;;;12.40;;
4839;SDS011;2434;48.486;7.964;2022-12-05T06:45:01;19.57;;;13.10;;
4839;SDS011;2434;48.486;7.964;2022-12-05T06:47:31;19.20;;;12.17;;
4839;SDS011;2434;48.486;7.964;2022-12-05T06:49:59;18.00;;;11.60;;
4839;SDS011;2434;48.486;7.964;2022-12-05T06:52:27;16.90;;;11.57;;
4839;SDS011;2434;48.486;7.964;2022-12-05T06:54:56;17.73;;;12.17;;
4839;SDS011;2434;48.486;7.964;2022-12-05T06:57:26;21.50;;;12.93;;
4839;SDS011;2434;48.486;7.964;2022-12-05T06:59:55;21.70;;;12.57;;
4839;SDS011;2434;48.486;7.964;2022-12-05T07:02:50;20.57;;;12.57;;
4839;SDS011;2434;48.486;7.964;2022-12-05T07:05:18;16.93;;;10.80;;
4839;SDS011;2434;48.486;7.964;2022-12-05T07:07:46;23.90;;;12.33;;
4839;SDS011;2434;48.486;7.964;2022-12-05T07:10:14;22.70;;;12.43;;
4839;SDS011;2434;48.486;7.964;2022-12-05T07:12:42;22.10;;;12.83;;
4839;SDS011;2434;48.486;7.964;2022-12-05T07:15:11;21.50;;;11.87;;
4839;SDS011;2434;48.486;7.964;2022-12-05T07:17:39;20.53;;;12.57;;
4839;SDS011;2434;48.486;7.964;2022-12-05T07:20:09;19.50;;;12.73;;
4839;SDS011;2434;48.486;7.964;2022-12-05T07:22:38;21.80;;;12.97;;
4839;SDS011;2434;48.486;7.964;2022-12-05T07:25:06;24.30;;;13.97;;
4839;SDS011;2434;48.486;7.964;2022-12-05T07:27:35;19.97;;;13.30;;
4839;SDS011;2434;48.486;7.964;2022-12-05T07:30:04;18.60;;;11.83;;
4839;SDS011;2434;48.486;7.964;2022-12-05T07:32:33;23.03;;;13.67;;
4839;SDS011;2434;48.486;7.964;2022-12-05T07:35:01;19.33;;;12.40;;
4839;SDS011;2434;48.486;7.964;2022-12-05T07:37:30;20.80;;;13.30;;
4839;SDS011;2434;48.486;7.964;2022-12-05T07:39:59;16.53;;;11.80;;
4839;SDS011;2434;48.486;7.964;2022-12-05T07:42:27;21.37;;;12.20;;
4839;SDS011;2434;48.486;7.964;2022-12-05T07:44:55;19.67;;;11.87;;
4839;SDS011;2434;48.486;7.964;2022-12-05T07:47:23;20.53;;;12.60;;
4839;SDS011;2434;48.486;7.964;2022-12-05T07:49:51;19.43;;;12.97;;
4839;SDS011;2434;48.486;7.964;2022-12-05T07:52:20;19.93;;;14.10;;
4839;SDS011;2434;48.486;7.964;2022-12-05T07:54:49;24.37;;;13.67;;
4839;SDS011;2434;48.486;7.964;2022-12-05T07:57:17;19.50;;;12.47;;
4839;SDS011;2434;48.486;7.964;2022-12-05T07:59:45;16.50;;;11.20;;
4839;SDS011;2434;48.486;7.964;2022-12-05T08:02:14;21.33;;;12.73;;
4839;SDS011;2434;48.486;7.964;2022-12-05T08:04:42;16.97;;;11.80;;
4839;SDS011;2434;48.486;7.964;2022-12-05T08:07:11;18.10;;;12.27;;
4839;SDS011;2434;48.486;7.964;2022-12-05T08:09:39;19.57;;;12.70;;
4839;SDS011;2434;48.486;7.964;2022-12-05T08:12:08;18.03;;;12.00;;
4839;SDS011;2434;48.486;7.964;2022-12-05T08:14:37;18.77;;;11.77;;
4839;SDS011;2434;48.486;7.964;2022-12-05T08:17:05;18.07;;;11.53;;
4839;SDS011;2434;48.486;7.964;2022-12-05T08:19:33;17.33;;;10.63;;
4839;SDS011;2434;48.486;7.964;2022-12-05T08:22:02;20.03;;;11.50;;
4839;SDS011;2434;48.486;7.964;2022-12-05T08:24:30;15.50;;;11.10;;
4839;SDS011;2434;48.486;7.964;2022-12-05T08:26:58;16.43;;;11.20;;
4839;SDS011;2434;48.486;7.964;2022-12-05T08:29:28;15.50;;;11.20;;
4839;SDS011;2434;48.486;7.964;2022-12-05T08:31:56;17.23;;;10.43;;
4839;SDS011;2434;48.486;7.964;2022-12-05T08:34:24;17.53;;;11.67;;
4839;SDS011;2434;48.486;7.964;2022-12-05T08:36:53;20.00;;;12.63;;
4839;SDS011;2434;48.486;7.964;2022-12-05T08:39:21;51.73;;;28.57;;
4839;SDS011;2434;48.486;7.964;2022-12-05T08:41:49;25.70;;;14.60;;
4839;SDS011;2434;48.486;7.964;2022-12-05T08:44:17;23.17;;;12.53;;
4839;SDS011;2434;48.486;7.964;2022-12-05T08:46:48;32.83;;;17.80;;
4839;SDS011;2434;48.486;7.964;2022-12-05T08:49:16;14.50;;;10.90;;
4839;SDS011;2434;48.486;7.964;2022-12-05T08:51:45;18.17;;;9.10;;
4839;SDS011;2434;48.486;7.964;2022-12-05T08:54:13;11.80;;;8.53;;
4839;SDS011;2434;48.486;7.964;2022-12-05T08:56:41;13.90;;;10.40;;
4839;SDS011;2434;48.486;7.964;2022-12-05T08:59:10;12.60;;;9.67;;
4839;SDS011;2434;48.486;7.964;2022-12-05T09:01:38;13.17;;;10.10;;
4839;SDS011;2434;48.486;7.964;2022-12-05T09:04:09;14.87;;;9.63;;
4839;SDS011;2434;48.486;7.964;2022-12-05T09:06:38;15.13;;;9.87;;
4839;SDS011;2434;48.486;7.964;2022-12-05T09:09:08;14.07;;;10.43;;
4839;SDS011;2434;48.486;7.964;2022-12-05T09:11:38;14.70;;;10.77;;
4839;SDS011;2434;48.486;7.964;2022-12-05T09:14:11;15.37;;;11.30;;
4839;SDS011;2434;48.486;7.964;2022-12-05T09:16:42;15.10;;;10.87;;
4839;SDS011;2434;48.486;7.964;2022-12-05T09:19:13;18.53;;;12.13;;
4839;SDS011;2434;48.486;7.964;2022-12-05T09:21:42;16.00;;;11.77;;
4839;SDS011;2434;48.486;7.964;2022-12-05T09:24:11;15.40;;;10.80;;
4839;SDS011;2434;48.486;7.964;2022-12-05T09:26:40;17.67;;;12.03;;
4839;SDS011;2434;48.486;7.964;2022-12-05T09:29:09;15.80;;;10.30;;
4839;SDS011;2434;48.486;7.964;2022-12-05T09:31:42;13.40;;;10.00;;
4839;SDS011;2434;48.486;7.964;2022-12-05T09:34:13;15.17;;;10.10;;
4839;SDS011;2434;48.486;7.964;2022-12-05T09:36:44;13.17;;;9.27;;
4839;SDS011;2434;48.486;7.964;2022-12-05T09:39:16;15.17;;;10.37;;
4839;SDS011;2434;48.486;7.964;2022-12-05T09:41:56;12.70;;;8.93;;
4839;SDS011;2434;48.486;7.964;2022-12-05T09:44:40;14.57;;;9.80;;
4839;SDS011;2434;48.486;7.964;2022-12-05T09:47:30;21.40;;;10.90;;
4839;SDS011;2434;48.486;7.964;2022-12-05T09:50:13;14.13;;;9.60;;
4839;SDS011;2434;48.486;7.964;2022-12-05T09:52:46;16.37;;;9.07;;
4839;SDS011;2434;48.486;7.964;2022-12-05T09:55:21;15.50;;;10.17;;
4839;SDS011;2434;48.486;7.964;2022-12-05T09:57:50;12.17;;;9.20;;
4839;SDS011;2434;48.486;7.964;2022-12-05T10:00:20;13.43;;;8.87;;
4839;SDS011;2434;48.486;7.964;2022-12-05T10:02:53;17.20;;;8.37;;
4839;SDS011;2434;48.486;7.964;2022-12-05T10:05:28;10.80;;;8.50;;
4839;SDS011;2434;48.486;7.964;2022-12-05T10:08:06;16.30;;;8.80;;
4839;SDS011;2434;48.486;7.964;2022-12-05T10:10:43;11.20;;;7.90;;
4839;SDS011;2434;48.486;7.964;2022-12-05T10:13:22;9.53;;;7.27;;
4839;SDS011;2434;48.486;7.964;2022-12-05T10:16:16;11.43;;;8.47;;
4839;SDS011;2434;48.486;7.964;2022-12-05T10:18:49;12.80;;;7.67;;
4839;SDS011;2434;48.486;7.964;2022-12-05T10:21:23;12.63;;;7.80;;
4839;SDS011;2434;48.486;7.964;2022-12-05T10:23:58;9.10;;;6.60;;
4839;SDS011;2434;48.486;7.964;2022-12-05T10:26:28;9.30;;;6.50;;
4839;SDS011;2434;48.486;7.964;2022-12-05T10:29:02;8.67;;;6.63;;
4839;SDS011;2434;48.486;7.964;2022-12-05T10:31:50;9.23;;;6.70;;
4839;SDS011;2434;48.486;7.964;2022-12-05T10:34:25;9.50;;;7.43;;
4839;SDS011;2434;48.486;7.964;2022-12-05T10:37:01;9.93;;;6.93;;
4839;SDS011;2434;48.486;7.964;2022-12-05T10:39:36;8.00;;;6.70;;
4839;SDS011;2434;48.486;7.964;2022-12-05T10:42:06;10.20;;;6.80;;
4839;SDS011;2434;48.486;7.964;2022-12-05T10:44:39;12.20;;;7.90;;
4839;SDS011;2434;48.486;7.964;2022-12-05T10:47:08;13.67;;;8.47;;
4839;SDS011;2434;48.486;7.964;2022-12-05T10:49:38;16.03;;;8.33;;
4839;SDS011;2434;48.486;7.964;2022-12-05T10:52:08;13.37;;;8.80;;
4839;SDS011;2434;48.486;7.964;2022-12-05T10:54:39;16.53;;;9.83;;
4839;SDS011;2434;48.486;7.964;2022-12-05T10:57:18;12.87;;;8.80;;
4839;SDS011;2434;48.486;7.964;2022-12-05T10:59:48;10.43;;;6.93;;
4839;SDS011;2434;48.486;7.964;2022-12-05T11:02:19;9.17;;;6.40;;
4839;SDS011;2434;48.486;7.964;2022-12-05T11:04:51;7.63;;;5.50;;
4839;SDS011;2434;48.486;7.964;2022-12-05T11:07:23;8.30;;;6.63;;
4839;SDS011;2434;48.486;7.964;2022-12-05T11:09:56;6.57;;;5.47;;
4839;SDS011;2434;48.486;7.964;2022-12-05T11:12:26;8.20;;;6.37;;
4839;SDS011;2434;48.486;7.964;2022-12-05T11:14:57;10.43;;;6.80;;
4839;SDS011;2434;48.486;7.964;2022-12-05T11:17:32;8.40;;;6.40;;
4839;SDS011;2434;48.486;7.964;2022-12-05T11:20:02;9.50;;;6.10;;
4839;SDS011;2434;48.486;7.964;2022-12-05T11:22:54;11.00;;;4.93;;
4839;SDS011;2434;48.486;7.964;2022-12-05T11:25:27;7.17;;;4.80;;
4839;SDS011;2434;48.486;7.964;2022-12-05T11:27:58;7.30;;;5.10;;
4839;SDS011;2434;48.486;7.964;2022-12-05T11:30:28;9.77;;;4.80;;
4839;SDS011;2434;48.486;7.964;2022-12-05T11:33:09;6.20;;;4.73;;
4839;SDS011;2434;48.486;7.964;2022-12-05T11:35:44;5.90;;;4.70;;
4839;SDS011;2434;48.486;7.964;2022-12-05T11:38:15;5.40;;;4.50;;
4839;SDS011;2434;48.486;7.964;2022-12-05T11:40:46;5.80;;;4.70;;
4839;SDS011;2434;48.486;7.964;2022-12-05T11:43:34;6.20;;;4.53;;
4839;SDS011;2434;48.486;7.964;2022-12-05T11:46:16;8.67;;;6.03;;
4839;SDS011;2434;48.486;7.964;2022-12-05T11:48:58;11.20;;;6.67;;
4839;SDS011;2434;48.486;7.964;2022-12-05T11:51:35;7.20;;;5.77;;
4839;SDS011;2434;48.486;7.964;2022-12-05T11:54:20;10.23;;;7.80;;
4839;SDS011;2434;48.486;7.964;2022-12-05T11:57:41;10.77;;;6.73;;
4839;SDS011;2434;48.486;7.964;2022-12-05T12:00:23;9.77;;;6.13;;
4839;SDS011;2434;48.486;7.964;2022-12-05T12:06:08;14.97;;;10.60;;
4839;SDS011;2434;48.486;7.964;2022-12-05T12:08:48;12.90;;;9.67;;
4839;SDS011;2434;48.486;7.964;2022-12-05T12:11:33;18.60;;;10.77;;
4839;SDS011;2434;48.486;7.964;2022-12-05T12:14:09;12.40;;;8.10;;
4839;SDS011;2434;48.486;7.964;2022-12-05T12:16:44;9.87;;;7.27;;
4839;SDS011;2434;48.486;7.964;2022-12-05T12:19:28;8.57;;;6.30;;
4839;SDS011;2434;48.486;7.964;2022-12-05T12:22:06;8.50;;;6.87;;
4839;SDS011;2434;48.486;7.964;2022-12-05T12:24:58;9.23;;;5.90;;
4839;SDS011;2434;48.486;7.964;2022-12-05T12:27:39;10.20;;;7.20;;
4839;SDS011;2434;48.486;7.964;2022-12-05T12:30:16;10.93;;;7.20;;
4839;SDS011;2434;48.486;7.964;2022-12-05T12:32:52;12.37;;;6.40;;
4839;SDS011;2434;48.486;7.964;2022-12-05T12:35:28;9.10;;;6.83;;
4839;SDS011;2434;48.486;7.964;2022-12-05T12:38:10;10.53;;;7.30;;
4839;SDS011;2434;48.486;7.964;2022-12-05T12:40:47;11.93;;;8.10;;
4839;SDS011;2434;48.486;7.964;2022-12-05T12:43:25;10.97;;;7.43;;
4839;SDS011;2434;48.486;7.964;2022-12-05T12:46:24;8.90;;;7.20;;
4839;SDS011;2434;48.486;7.964;2022-12-05T12:49:09;10.20;;;7.20;;
4839;SDS011;2434;48.486;7.964;2022-12-05T12:51:50;12.90;;;8.30;;
4839;SDS011;2434;48.486;7.964;2022-12-05T12:54:26;11.77;;;9.10;;
4839;SDS011;2434;48.486;7.964;2022-12-05T12:57:31;12.87;;;8.10;;
4839;SDS011;2434;48.486;7.964;2022-12-05T13:00:11;13.33;;;8.43;;
4839;SDS011;2434;48.486;7.964;2022-12-05T13:02:48;13.10;;;9.43;;
4839;SDS011;2434;48.486;7.964;2022-12-05T13:05:26;16.00;;;10.77;;
4839;SDS011;2434;48.486;7.964;2022-12-05T13:08:00;13.50;;;8.97;;
4839;SDS011;2434;48.486;7.964;2022-12-05T13:10:37;16.43;;;10.90;;
4839;SDS011;2434;48.486;7.964;2022-12-05T13:13:09;11.20;;;7.93;;
4839;SDS011;2434;48.486;7.964;2022-12-05T13:15:44;11.33;;;8.03;;
4839;SDS011;2434;48.486;7.964;2022-12-05T13:18:17;13.53;;;8.67;;
4839;SDS011;2434;48.486;7.964;2022-12-05T13:20:47;24.37;;;11.17;;
4839;SDS011;2434;48.486;7.964;2022-12-05T13:23:18;18.87;;;10.63;;
4839;SDS011;2434;48.486;7.964;2022-12-05T13:25:49;17.20;;;12.17;;
4839;SDS011;2434;48.486;7.964;2022-12-05T13:28:22;16.03;;;11.20;;
4839;SDS011;2434;48.486;7.964;2022-12-05T13:30:56;12.93;;;8.90;;
4839;SDS011;2434;48.486;7.964;2022-12-05T13:33:28;14.83;;;9.00;;
4839;SDS011;2434;48.486;7.964;2022-12-05T13:36:07;11.97;;;8.77;;
4839;SDS011;2434;48.486;7.964;2022-12-05T13:38:55;12.40;;;9.30;;
4839;SDS011;2434;48.486;7.964;2022-12-05T13:41:43;10.37;;;8.50;;
4839;SDS011;2434;48.486;7.964;2022-12-05T13:44:31;11.40;;;8.80;;
4839;SDS011;2434;48.486;7.964;2022-12-05T13:47:05;8.77;;;6.60;;
4839;SDS011;2434;48.486;7.964;2022-12-05T13:49:46;10.67;;;7.20;;
4839;SDS011;2434;48.486;7.964;2022-12-05T13:52:19;11.27;;;8.40;;
4839;SDS011;2434;48.486;7.964;2022-12-05T13:54:51;9.97;;;7.50;;
4839;SDS011;2434;48.486;7.964;2022-12-05T14:00:22;8.67;;;6.90;;
4839;SDS011;2434;48.486;7.964;2022-12-05T14:03:01;7.80;;;6.30;;
4839;SDS011;2434;48.486;7.964;2022-12-05T14:05:38;8.50;;;6.70;;
4839;SDS011;2434;48.486;7.964;2022-12-05T14:11:17;9.30;;;7.50;;
4839;SDS011;2434;48.486;7.964;2022-12-05T14:13:46;9.87;;;8.10;;
4839;SDS011;2434;48.486;7.964;2022-12-05T14:19:33;12.93;;;9.10;;
4839;SDS011;2434;48.486;7.964;2022-12-05T14:25:22;11.40;;;9.40;;
4839;SDS011;2434;48.486;7.964;2022-12-05T14:28:17;10.50;;;8.33;;
4839;SDS011;2434;48.486;7.964;2022-12-05T14:30:58;10.80;;;8.20;;
4839;SDS011;2434;48.486;7.964;2022-12-05T14:33:39;10.70;;;7.93;;
4839;SDS011;2434;48.486;7.964;2022-12-05T14:36:13;10.47;;;7.10;;
4839;SDS011;2434;48.486;7.964;2022-12-05T14:38:57;9.63;;;6.80;;
4839;SDS011;2434;48.486;7.964;2022-12-05T14:41:26;10.77;;;7.17;;
4839;SDS011;2434;48.486;7.964;2022-12-05T14:43:59;9.63;;;6.90;;
4839;SDS011;2434;48.486;7.964;2022-12-05T14:46:34;9.93;;;7.00;;
4839;SDS011;2434;48.486;7.964;2022-12-05T14:52:20;9.37;;;6.63;;
4839;SDS011;2434;48.486;7.964;2022-12-05T14:54:50;10.50;;;7.27;;
4839;SDS011;2434;48.486;7.964;2022-12-05T14:57:21;8.40;;;6.67;;
4839;SDS011;2434;48.486;7.964;2022-12-05T14:59:51;7.70;;;6.80;;
4839;SDS011;2434;48.486;7.964;2022-12-05T15:02:23;8.20;;;6.73;;
4839;SDS011;2434;48.486;7.964;2022-12-05T15:04:55;12.60;;;7.63;;
4839;SDS011;2434;48.486;7.964;2022-12-05T15:07:28;12.20;;;8.83;;
4839;SDS011;2434;48.486;7.964;2022-12-05T15:10:01;19.60;;;10.07;;
4839;SDS011;2434;48.486;7.964;2022-12-05T15:12:32;15.10;;;9.67;;
4839;SDS011;2434;48.486;7.964;2022-12-05T15:15:09;13.70;;;8.50;;
4839;SDS011;2434;48.486;7.964;2022-12-05T15:17:44;13.90;;;8.27;;
4839;SDS011;2434;48.486;7.964;2022-12-05T15:20:16;9.97;;;7.30;;
4839;SDS011;2434;48.486;7.964;2022-12-05T15:22:52;10.30;;;7.30;;
4839;SDS011;2434;48.486;7.964;2022-12-05T15:25:21;8.73;;;6.83;;
4839;SDS011;2434;48.486;7.964;2022-12-05T15:27:55;6.27;;;5.33;;
4839;SDS011;2434;48.486;7.964;2022-12-05T15:30:26;11.73;;;5.80;;
4839;SDS011;2434;48.486;7.964;2022-12-05T15:32:55;8.23;;;5.17;;
4839;SDS011;2434;48.486;7.964;2022-12-05T15:35:26;8.47;;;5.70;;
4839;SDS011;2434;48.486;7.964;2022-12-05T15:38:00;8.13;;;5.10;;
4839;SDS011;2434;48.486;7.964;2022-12-05T15:40:34;7.57;;;5.20;;
4839;SDS011;2434;48.486;7.964;2022-12-05T15:43:20;6.33;;;5.23;;
4839;SDS011;2434;48.486;7.964;2022-12-05T15:46:07;7.00;;;5.40;;
4839;SDS011;2434;48.486;7.964;2022-12-05T15:48:36;12.50;;;8.30;;
4839;SDS011;2434;48.486;7.964;2022-12-05T15:51:04;15.90;;;8.67;;
4839;SDS011;2434;48.486;7.964;2022-12-05T15:53:38;10.10;;;7.50;;
4839;SDS011;2434;48.486;7.964;2022-12-05T15:56:10;8.67;;;7.53;;
4839;SDS011;2434;48.486;7.964;2022-12-05T15:58:42;12.30;;;9.63;;